createdAt,value
2018-12-15T00:00:44.455Z,24.1
2018-12-15T00:01:34.681Z,23.9
2018-12-15T00:02:23.744Z,24.3
2018-12-15T00:03:14.076Z,25.3
2018-12-15T00:04:04.471Z,26.2
2018-12-15T00:04:54.198Z,27.1
2018-12-15T00:05:44.246Z,27.9
2018-12-15T00:06:34.516Z,28.6
2018-12-15T00:07:24.113Z,29.1
2018-12-15T00:08:14.141Z,29.6
2018-12-15T00:09:05.239Z,30.1
2018-12-15T00:09:54.288Z,30.4
2018-12-15T00:10:44.598Z,30.8
2018-12-15T00:11:34.645Z,31.1
2018-12-15T00:12:25.448Z,31.4
2018-12-15T00:13:14.421Z,31.8
2018-12-15T00:14:04.788Z,32
2018-12-15T00:14:55.375Z,32.3
2018-12-15T00:33:05.916Z,28.8
2018-12-15T00:33:55.732Z,28.5
2018-12-15T00:34:46.142Z,28.3
2018-12-15T00:35:36.451Z,28.1
2018-12-15T00:36:26.732Z,27.9
2018-12-15T00:37:16.478Z,27.7
2018-12-15T00:38:06.744Z,27.3
2018-12-15T00:38:56.641Z,26.9
2018-12-15T00:39:46.126Z,26.8
2018-12-15T00:40:36.174Z,26.6
2018-12-15T00:41:27.074Z,26.4
2018-12-15T00:42:16.583Z,26.3
2018-12-15T00:43:07.218Z,26.3
2018-12-15T00:43:57.471Z,26.2
2018-12-15T00:44:46.753Z,26.1
2018-12-15T00:45:37.103Z,26.1
2018-12-15T00:46:27.121Z,26.1
2018-12-15T00:47:21.534Z,26
2018-12-15T00:48:07.528Z,25.8
2018-12-15T00:48:56.778Z,25.5
2018-12-15T00:49:46.309Z,25.3
2018-12-15T00:50:37.146Z,25.2
2018-12-15T00:51:26.081Z,25.1
2018-12-15T00:52:17.533Z,25
2018-12-15T00:53:07.591Z,24.9
2018-12-15T00:53:57.966Z,24.9
2018-12-15T00:54:47.161Z,24.8
2018-12-15T00:55:37.203Z,24.8
2018-12-15T00:56:27.311Z,24.8
2018-12-15T00:57:16.778Z,24.8
2018-12-15T00:58:07.651Z,24.6
2018-12-15T00:58:58.305Z,24.4
2018-12-15T00:59:48.366Z,24.2
2018-12-15T01:00:37.268Z,24.1
2018-12-15T01:01:28.523Z,23.9
2018-12-15T01:02:17.993Z,23.9
2018-12-15T01:03:08.326Z,23.8
2018-12-15T01:03:58.630Z,23.8
2018-12-15T01:04:48.377Z,23.7
2018-12-15T01:05:38.528Z,23.7
2018-12-15T01:06:28.512Z,23.5
2018-12-15T01:07:18.311Z,24.2
2018-12-15T01:08:08.108Z,25.3
2018-12-15T01:08:58.888Z,26.2
2018-12-15T01:09:49.373Z,27
2018-12-15T01:11:28.875Z,28.4
2018-12-15T01:12:18.380Z,29.1
2018-12-15T01:13:08.383Z,29.4
2018-12-15T01:13:58.760Z,29.9
2018-12-15T01:14:49.335Z,30.3
2018-12-15T01:15:39.691Z,30.6
2018-12-15T01:16:28.979Z,30.9
2018-12-15T01:17:25.638Z,31.2
2018-12-15T01:18:09.917Z,31.5
2018-12-15T01:18:58.828Z,31.8
2018-12-15T01:19:49.430Z,32
2018-12-15T01:20:39.477Z,32.2
2018-12-15T01:21:29.820Z,32.4
2018-12-15T01:22:20.162Z,32.6
2018-12-15T01:23:09.117Z,32.8
2018-12-15T01:23:59.677Z,32.8
2018-12-15T01:24:50.330Z,31.5
2018-12-15T01:25:39.529Z,30.8
2018-12-15T01:26:30.251Z,30.4
2018-12-15T01:27:19.659Z,30.1
2018-12-15T01:28:09.746Z,29.9
2018-12-15T01:29:00.314Z,29.7
2018-12-15T01:29:50.607Z,29.6
2018-12-15T01:30:39.884Z,29.3
2018-12-15T01:31:30.289Z,29.1
2018-12-15T01:32:20.079Z,28.9
2018-12-15T01:33:09.922Z,28.7
2018-12-15T01:34:00.529Z,28.4
2018-12-15T01:34:49.431Z,28.1
2018-12-15T01:35:40.312Z,27.9
2018-12-15T01:36:30.066Z,27.7
2018-12-15T01:37:20.617Z,27.5
2018-12-15T01:38:10.976Z,27.4
2018-12-15T01:39:00.263Z,27.3
2018-12-15T01:39:50.926Z,27.3
2018-12-15T01:40:40.273Z,27.2
2018-12-15T01:41:30.924Z,27.1
2018-12-15T01:42:20.979Z,27.1
2018-12-15T01:43:11.316Z,27
2018-12-15T01:44:01.726Z,26.8
2018-12-15T01:44:51.768Z,26.4
2018-12-15T01:45:41.246Z,26.2
2018-12-15T01:46:30.998Z,26
2018-12-15T01:47:27.396Z,25.9
2018-12-15T01:48:11.708Z,25.8
2018-12-15T01:49:01.414Z,25.7
2018-12-15T01:49:51.783Z,25.6
2018-12-15T01:50:40.968Z,25.6
2018-12-15T01:51:31.325Z,25.5
2018-12-15T01:52:21.650Z,25.4
2018-12-15T01:53:11.793Z,25.4
2018-12-15T01:54:01.783Z,25.4
2018-12-15T01:54:51.841Z,25.1
2018-12-15T01:55:41.933Z,24.8
2018-12-15T01:56:31.696Z,24.6
2018-12-15T01:57:21.488Z,24.5
2018-12-15T01:58:12.078Z,24.4
2018-12-15T01:59:02.108Z,24.3
2018-12-15T01:59:52.173Z,24.3
2018-12-15T02:00:42.493Z,24.2
2018-12-15T02:01:32.306Z,24.1
2018-12-15T02:02:22.163Z,24.1
2018-12-15T02:03:11.856Z,24.1
2018-12-15T02:04:02.513Z,24.1
2018-12-15T02:04:51.160Z,23.9
2018-12-15T02:05:42.578Z,24.1
2018-12-15T02:06:32.365Z,25.3
2018-12-15T02:07:22.711Z,26.1
2018-12-15T02:08:13.018Z,26.9
2018-12-15T02:09:02.832Z,27.8
2018-12-15T02:09:52.848Z,28.4
2018-12-15T02:10:42.898Z,28.9
2018-12-15T02:11:31.115Z,29.3
2018-12-15T02:12:23.043Z,29.7
2018-12-15T02:13:12.870Z,30.1
2018-12-15T02:14:03.730Z,30.4
2018-12-15T02:14:53.515Z,30.7
2018-12-15T02:15:42.240Z,30.9
2018-12-15T02:16:34.182Z,31.2
2018-12-15T02:17:22.952Z,31.4
2018-12-15T02:18:13.144Z,31.7
2018-12-15T02:19:03.764Z,31.9
2018-12-15T02:19:53.294Z,32.1
2018-12-15T02:20:42.859Z,32.3
2018-12-15T02:21:33.749Z,32.5
2018-12-15T02:22:22.851Z,32.6
2018-12-15T02:23:13.154Z,32.8
2018-12-15T02:24:03.364Z,32.9
2018-12-15T02:24:53.989Z,32.3
2018-12-15T02:25:42.993Z,30.8
2018-12-15T02:26:34.009Z,30.1
2018-12-15T02:27:23.863Z,29.5
2018-12-15T02:28:13.886Z,29.1
2018-12-15T02:29:02.866Z,28.8
2018-12-15T02:29:54.311Z,28.6
2018-12-15T02:30:44.914Z,28.4
2018-12-15T02:31:34.459Z,28.3
2018-12-15T02:32:24.728Z,28.1
2018-12-15T02:33:13.756Z,28.1
2018-12-15T02:34:04.079Z,27.9
2018-12-15T02:34:54.179Z,27.7
2018-12-15T02:35:43.949Z,27.5
2018-12-15T02:36:33.678Z,27.3
2018-12-15T02:37:24.734Z,27.2
2018-12-15T02:38:14.428Z,27.1
2018-12-15T02:39:04.640Z,27.1
2018-12-15T02:39:54.176Z,26.9
2018-12-15T02:40:44.445Z,26.9
2018-12-15T02:41:34.866Z,26.8
2018-12-15T02:42:24.628Z,26.8
2018-12-15T02:43:15.008Z,26.8
2018-12-15T02:44:05.046Z,26.6
2018-12-15T02:44:55.138Z,26.3
2018-12-15T02:45:44.885Z,26
2018-12-15T02:46:34.947Z,25.8
2018-12-15T02:47:24.991Z,25.6
2018-12-15T02:48:15.032Z,25.5
2018-12-15T02:49:05.108Z,25.4
2018-12-15T02:49:55.190Z,25.4
2018-12-15T02:50:46.039Z,25.3
2018-12-15T02:51:35.342Z,25.3
2018-12-15T02:52:24.850Z,25.2
2018-12-15T02:53:15.680Z,25.1
2018-12-15T02:54:05.264Z,25.1
2018-12-15T02:54:55.318Z,24.9
2018-12-15T02:55:45.292Z,24.7
2018-12-15T02:56:35.603Z,24.5
2018-12-15T02:57:25.679Z,24.4
2018-12-15T02:58:15.515Z,24.3
2018-12-15T02:59:05.777Z,24.3
2018-12-15T02:59:56.584Z,24.2
2018-12-15T03:00:46.107Z,24.1
2018-12-15T03:01:36.018Z,24.1
2018-12-15T03:02:26.008Z,24
2018-12-15T03:03:16.574Z,24
2018-12-15T03:04:06.645Z,23.9
2018-12-15T03:04:56.693Z,23.9
2018-12-15T03:05:46.733Z,23.8
2018-12-15T03:06:37.156Z,24.9
2018-12-15T03:07:26.567Z,25.9
2018-12-15T03:08:16.687Z,26.6
2018-12-15T03:09:06.449Z,27.4
2018-12-15T03:09:57.049Z,28.2
2018-12-15T03:10:46.768Z,28.7
2018-12-15T03:11:36.399Z,29.1
2018-12-15T03:12:27.726Z,29.5
2018-12-15T03:13:17.306Z,29.9
2018-12-15T03:14:07.138Z,30.1
2018-12-15T03:14:57.351Z,30.4
2018-12-15T03:15:47.761Z,30.7
2018-12-15T03:16:37.522Z,30.7
2018-12-15T03:17:27.061Z,29.7
2018-12-15T03:18:17.853Z,28.4
2018-12-15T03:19:06.838Z,27.2
2018-12-15T03:19:57.444Z,26.3
2018-12-15T03:20:47.060Z,25.2
2018-12-15T03:21:38.160Z,24
2018-12-15T03:22:27.910Z,24.1
2018-12-15T03:23:17.940Z,24.1
2018-12-15T03:24:07.447Z,25.3
2018-12-15T03:24:58.310Z,26.3
2018-12-15T03:25:48.396Z,27.3
2018-12-15T03:26:38.443Z,28.1
2018-12-15T03:27:28.666Z,28.8
2018-12-15T03:28:18.400Z,29.3
2018-12-15T03:29:08.903Z,29.7
2018-12-15T03:29:58.779Z,30.1
2018-12-15T03:30:48.183Z,30.4
2018-12-15T03:31:42.271Z,30.8
2018-12-15T03:32:29.385Z,31.1
2018-12-15T03:33:17.880Z,31.3
2018-12-15T03:34:08.751Z,31.5
2018-12-15T03:34:58.717Z,31.8
2018-12-15T03:35:48.507Z,32
2018-12-15T03:36:38.922Z,32.2
2018-12-15T03:37:29.232Z,32.4
2018-12-15T03:38:19.063Z,32.6
2018-12-15T03:39:09.905Z,32.7
2018-12-15T03:39:59.400Z,32.9
2018-12-15T03:40:49.745Z,33
2018-12-15T03:41:39.197Z,32.9
2018-12-15T03:42:29.834Z,31.2
2018-12-15T03:43:18.515Z,29.9
2018-12-15T03:44:08.542Z,29.1
2018-12-15T03:44:58.899Z,28.6
2018-12-15T03:45:48.939Z,28.3
2018-12-15T03:46:39.842Z,28
2018-12-15T03:47:29.087Z,27.8
2018-12-15T03:48:19.946Z,27.6
2018-12-15T03:49:10.274Z,27.5
2018-12-15T03:49:59.754Z,27.4
2018-12-15T03:50:50.132Z,27.3
2018-12-15T03:51:39.889Z,27.2
2018-12-15T03:52:29.993Z,27.1
2018-12-15T03:53:20.013Z,27
2018-12-15T03:54:10.891Z,26.9
2018-12-15T03:54:59.836Z,26.8
2018-12-15T03:55:50.786Z,26.7
2018-12-15T03:56:40.283Z,26.6
2018-12-15T03:57:30.678Z,26.6
2018-12-15T03:58:20.748Z,26.5
2018-12-15T03:59:10.689Z,26.4
2018-12-15T04:00:00.196Z,26.4
2018-12-15T04:00:50.836Z,26.4
2018-12-15T04:01:40.641Z,26.3
2018-12-15T04:02:30.476Z,26.1
2018-12-15T04:03:21.102Z,25.8
2018-12-15T04:04:11.146Z,25.6
2018-12-15T04:05:00.545Z,25.4
2018-12-15T04:05:50.870Z,25.3
2018-12-15T04:06:40.391Z,25.3
2018-12-15T04:07:31.308Z,25.2
2018-12-15T04:08:21.011Z,25.1
2018-12-15T04:09:10.586Z,25.1
2018-12-15T04:10:01.215Z,25
2018-12-15T04:10:50.441Z,24.9
2018-12-15T04:11:42.133Z,24.9
2018-12-15T04:12:30.821Z,24.9
2018-12-15T04:13:21.270Z,24.6
2018-12-15T04:14:11.685Z,24.4
2018-12-15T04:15:01.862Z,24.3
2018-12-15T04:15:51.058Z,24.2
2018-12-15T04:16:42.283Z,24.1
2018-12-15T04:17:32.247Z,24
2018-12-15T04:18:20.941Z,24
2018-12-15T04:19:11.252Z,23.9
2018-12-15T04:20:01.884Z,23.8
2018-12-15T04:20:51.931Z,24.7
2018-12-15T04:21:41.677Z,25.8
2018-12-15T04:22:31.998Z,26.6
2018-12-15T04:23:21.850Z,27.4
2018-12-15T04:24:12.122Z,28.1
2018-12-15T04:25:02.785Z,28.7
2018-12-15T04:25:53.159Z,29.1
2018-12-15T04:26:43.039Z,29.5
2018-12-15T04:27:32.095Z,29.8
2018-12-15T04:28:21.682Z,30.1
2018-12-15T04:29:13.072Z,30.4
2018-12-15T04:30:03.162Z,30.8
2018-12-15T04:30:53.712Z,31
2018-12-15T04:31:42.647Z,31.3
2018-12-15T04:32:32.442Z,31.5
2018-12-15T04:33:22.491Z,31.7
2018-12-15T04:34:12.849Z,31.9
2018-12-15T04:35:03.241Z,32.1
2018-12-15T04:35:52.916Z,32.3
2018-12-15T04:36:43.031Z,32.4
2018-12-15T04:37:33.340Z,32.6
2018-12-15T04:38:22.814Z,32.7
2018-12-15T04:39:12.909Z,32.8
2018-12-15T04:40:03.588Z,32.9
2018-12-15T04:40:54.190Z,33.1
2018-12-15T04:41:43.091Z,32.8
2018-12-15T04:42:32.830Z,31
2018-12-15T04:43:23.032Z,29.5
2018-12-15T04:44:13.584Z,28.6
2018-12-15T04:45:03.591Z,28
2018-12-15T05:02:20.950Z,25.8
2018-12-15T05:03:10.943Z,25.6
2018-12-15T05:04:00.439Z,25.4
2018-12-15T05:04:51.059Z,25.3
2018-12-15T05:05:40.862Z,25.3
2018-12-15T05:06:30.077Z,25.2
2018-12-15T05:07:20.692Z,25.1
2018-12-15T05:08:10.509Z,25
2018-12-15T05:09:01.032Z,25
2018-12-15T05:09:50.587Z,24.9
2018-12-15T05:10:40.867Z,24.9
2018-12-15T05:11:31.230Z,24.9
2018-12-15T05:12:22.729Z,24.6
2018-12-15T05:13:11.139Z,24.4
2018-12-15T05:14:01.697Z,24.3
2018-12-15T05:14:51.716Z,24.2
2018-12-15T05:15:41.531Z,24.1
2018-12-15T05:16:31.064Z,24.1
2018-12-15T05:17:22.471Z,23.9
2018-12-15T05:18:19.709Z,23.8
2018-12-15T05:19:02.310Z,24.8
2018-12-15T05:19:52.118Z,25.6
2018-12-15T05:20:41.299Z,26.5
2018-12-15T05:21:31.709Z,27.3
2018-12-15T05:22:21.976Z,28.1
2018-12-15T05:23:12.321Z,28.6
2018-12-15T05:24:01.534Z,29
2018-12-15T05:24:52.451Z,29.4
2018-12-15T05:25:42.183Z,29.8
2018-12-15T05:26:32.521Z,30
2018-12-15T05:27:22.531Z,30.3
2018-12-15T05:28:11.795Z,30.6
2018-12-15T05:29:02.768Z,30.9
2018-12-15T05:29:52.194Z,31.1
2018-12-15T05:30:42.791Z,31.3
2018-12-15T05:31:32.370Z,31.6
2018-12-15T05:32:22.941Z,31.7
2018-12-15T05:33:12.740Z,31.9
2018-12-15T05:34:02.234Z,32.1
2018-12-15T05:34:53.358Z,32.3
2018-12-15T05:35:43.218Z,32.4
2018-12-15T05:36:32.687Z,32.6
2018-12-15T05:37:22.970Z,32.7
2018-12-15T05:38:13.319Z,32.8
2018-12-15T05:39:03.115Z,32.9
2018-12-15T05:39:53.740Z,33.1
2018-12-15T05:40:42.122Z,33.2
2018-12-15T05:41:33.279Z,32.5
2018-12-15T05:42:22.031Z,31.3
2018-12-15T05:43:13.735Z,29.6
2018-12-15T05:44:02.631Z,28.4
2018-12-15T05:44:54.052Z,27.5
2018-12-15T05:45:43.640Z,26.3
2018-12-15T05:46:33.342Z,25
2018-12-15T05:47:23.942Z,25.1
2018-12-15T05:48:13.222Z,25.1
2018-12-15T05:49:04.085Z,26.3
2018-12-15T05:49:54.130Z,27.3
2018-12-15T05:50:43.910Z,28.2
2018-12-15T05:51:34.263Z,28.9
2018-12-15T05:52:23.202Z,29.6
2018-12-15T05:53:14.094Z,30
2018-12-15T05:54:04.690Z,30.4
2018-12-15T05:54:54.497Z,30.8
2018-12-15T05:55:44.252Z,31.1
2018-12-15T05:56:34.317Z,31.4
2018-12-15T05:57:24.616Z,31.7
2018-12-15T05:58:13.596Z,31.9
2018-12-15T05:59:04.792Z,32.2
2018-12-15T05:59:54.002Z,32.4
2018-12-15T06:00:44.862Z,32.6
2018-12-15T06:01:34.954Z,32.8
2018-12-15T06:02:24.482Z,32.9
2018-12-15T06:03:15.084Z,33.1
2018-12-15T06:04:05.386Z,33.2
2018-12-15T06:04:54.907Z,32.9
2018-12-15T06:05:44.919Z,30.9
2018-12-15T06:06:34.434Z,29.1
2018-12-15T06:07:24.491Z,28
2018-12-15T06:08:15.089Z,27.4
2018-12-15T06:09:05.448Z,26.9
2018-12-15T06:09:55.533Z,26.6
2018-12-15T06:10:45.004Z,26.3
2018-12-15T06:11:35.348Z,26.2
2018-12-15T06:12:25.719Z,26.1
2018-12-15T06:13:14.908Z,26
2018-12-15T06:14:07.056Z,25.9
2018-12-15T06:14:55.572Z,26.2
2018-12-15T06:15:46.166Z,26.2
2018-12-15T06:16:35.421Z,26.2
2018-12-15T06:17:26.288Z,26.1
2018-12-15T06:18:16.080Z,26.1
2018-12-15T06:19:05.308Z,26
2018-12-15T06:19:55.363Z,26
2018-12-15T06:20:45.143Z,25.9
2018-12-15T06:21:35.445Z,25.9
2018-12-15T06:22:25.816Z,25.9
2018-12-15T06:23:15.010Z,25.8
2018-12-15T06:24:05.955Z,25.8
2018-12-15T06:24:56.011Z,25.6
2018-12-15T06:25:46.621Z,25.4
2018-12-15T06:26:36.688Z,25.3
2018-12-15T06:27:26.180Z,25.2
2018-12-15T06:28:15.935Z,25.1
2018-12-15T06:29:07.123Z,25.1
2018-12-15T06:29:55.757Z,25
2018-12-15T06:30:47.020Z,24.9
2018-12-15T06:31:37.503Z,24.9
2018-12-15T06:32:26.494Z,24.8
2018-12-15T06:33:16.550Z,24.8
2018-12-15T06:34:07.401Z,24.6
2018-12-15T06:34:56.952Z,25.1
2018-12-15T06:35:46.457Z,26.1
2018-12-15T06:36:37.102Z,27
2018-12-15T06:37:27.116Z,27.7
2018-12-15T06:38:17.454Z,28.4
2018-12-15T06:39:06.680Z,28.9
2018-12-15T06:39:56.775Z,29.4
2018-12-15T06:40:47.332Z,29.7
2018-12-15T06:41:37.090Z,30
2018-12-15T06:42:28.059Z,30.3
2018-12-15T06:43:17.839Z,30.6
2018-12-15T06:44:07.845Z,30.9
2018-12-15T06:44:57.354Z,31.1
2018-12-15T06:45:47.666Z,31.4
2018-12-15T06:46:37.684Z,31.6
2018-12-15T06:47:28.141Z,31.8
2018-12-15T06:48:18.116Z,31.9
2018-12-15T06:49:07.363Z,32.1
2018-12-15T06:49:58.600Z,32.3
2018-12-15T06:50:48.043Z,32.4
2018-12-15T06:51:36.976Z,32.6
2018-12-15T06:52:28.961Z,32.7
2018-12-15T06:53:17.912Z,32.8
2018-12-15T06:54:08.126Z,32.9
2018-12-15T06:54:57.546Z,33.1
2018-12-15T06:55:46.786Z,33.1
2018-12-15T06:56:38.463Z,31.8
2018-12-15T06:57:28.193Z,29.4
2018-12-15T06:58:18.218Z,28
2018-12-15T06:59:08.303Z,27.1
2018-12-15T06:59:59.238Z,26.6
2018-12-15T07:00:48.787Z,26.1
2018-12-15T07:01:39.070Z,25.9
2018-12-15T07:02:28.563Z,25.7
2018-12-15T07:03:19.155Z,25.6
2018-12-15T07:04:08.375Z,25.5
2018-12-15T07:04:59.040Z,25.4
2018-12-15T07:05:49.615Z,25.8
2018-12-15T07:06:39.637Z,25.9
2018-12-15T07:07:29.425Z,26
2018-12-15T07:08:19.235Z,25.9
2018-12-15T07:09:09.072Z,25.9
2018-12-15T07:09:58.825Z,25.9
2018-12-15T07:10:49.942Z,25.9
2018-12-15T07:11:39.439Z,25.8
2018-12-15T07:12:30.020Z,25.8
2018-12-15T07:13:19.517Z,25.8
2018-12-15T07:14:08.792Z,25.8
2018-12-15T07:14:59.107Z,25.7
2018-12-15T07:15:49.462Z,25.6
2018-12-15T07:16:39.601Z,25.4
2018-12-15T07:17:30.402Z,25.3
2018-12-15T07:18:19.079Z,25.2
2018-12-15T07:19:09.154Z,25.1
2018-12-15T07:19:59.719Z,25
2018-12-15T07:20:50.047Z,24.9
2018-12-15T07:21:39.646Z,24.9
2018-12-15T07:22:29.889Z,24.8
2018-12-15T07:23:20.228Z,24.8
2018-12-15T07:24:10.921Z,24.6
2018-12-15T07:25:00.359Z,25.3
2018-12-15T07:25:51.239Z,26.3
2018-12-15T07:26:40.198Z,27.1
2018-12-15T07:27:30.846Z,27.9
2018-12-15T07:28:20.586Z,28.6
2018-12-15T07:29:10.330Z,29.1
2018-12-15T07:30:00.408Z,29.5
2018-12-15T07:30:51.291Z,29.8
2018-12-15T07:31:39.974Z,30.2
2018-12-15T07:32:30.630Z,30.4
2018-12-15T07:33:20.960Z,30.8
2018-12-15T07:34:10.948Z,31.1
2018-12-15T07:35:07.883Z,31.3
2018-12-15T07:35:50.645Z,31.6
2018-12-15T07:36:41.167Z,31.8
2018-12-15T07:37:30.935Z,31.9
2018-12-15T07:38:21.910Z,32
2018-12-15T07:39:10.790Z,32.3
2018-12-15T07:40:01.732Z,32.4
2018-12-15T07:40:50.902Z,32.6
2018-12-15T07:41:41.215Z,32.7
2018-12-15T07:42:30.713Z,32.8
2018-12-15T07:43:21.050Z,32.9
2018-12-15T07:44:11.123Z,33.1
2018-12-15T07:45:01.794Z,33.1
2018-12-15T07:45:52.340Z,33
2018-12-15T07:46:41.801Z,31
2018-12-15T07:47:31.622Z,28.8
2018-12-15T07:48:22.539Z,27.5
2018-12-15T07:49:12.591Z,26.7
2018-12-15T07:50:01.497Z,26.2
2018-12-15T07:50:51.864Z,25.8
2018-12-15T07:51:42.227Z,25.6
2018-12-15T07:52:31.408Z,25.4
2018-12-15T07:53:21.747Z,25.3
2018-12-15T07:54:12.912Z,25.2
2018-12-15T07:55:02.429Z,25.1
2018-12-15T07:55:52.439Z,25.6
2018-12-15T07:56:44.366Z,25.8
2018-12-15T07:57:32.341Z,25.9
2018-12-15T07:58:22.334Z,25.9
2018-12-15T07:59:13.016Z,25.9
2018-12-15T08:00:03.329Z,25.9
2018-12-15T08:00:52.815Z,25.9
2018-12-15T08:01:43.405Z,25.8
2018-12-15T08:02:32.924Z,25.8
2018-12-15T08:03:22.721Z,25.8
2018-12-15T08:04:13.841Z,25.7
2018-12-15T08:05:03.096Z,25.7
2018-12-15T08:05:53.926Z,25.6
2018-12-15T08:06:43.168Z,25.4
2018-12-15T08:07:34.508Z,25.3
2018-12-15T08:08:23.593Z,25.1
2018-12-15T08:09:13.954Z,25.1
2018-12-15T08:10:02.594Z,25
2018-12-15T08:10:53.730Z,24.9
2018-12-15T08:11:43.274Z,24.9
2018-12-15T08:12:32.503Z,24.8
2018-12-15T08:13:25.300Z,24.7
2018-12-15T08:14:13.493Z,25.2
2018-12-15T08:15:04.332Z,26.3
2018-12-15T08:15:53.544Z,27.2
2018-12-15T08:16:43.893Z,28
2018-12-15T08:17:33.375Z,28.6
2018-12-15T08:18:23.815Z,29.1
2018-12-15T08:19:13.597Z,29.5
2018-12-15T08:20:04.155Z,29.9
2018-12-15T08:20:52.780Z,29.9
2018-12-15T08:21:44.303Z,29
2018-12-15T08:22:34.293Z,27.8
2018-12-15T08:23:23.510Z,26.7
2018-12-15T08:24:14.935Z,25.9
2018-12-15T08:25:04.185Z,24.9
2018-12-15T08:25:54.225Z,23.8
2018-12-15T08:26:43.762Z,22.8
2018-12-15T08:27:34.902Z,22.9
2018-12-15T08:28:24.827Z,23.2
2018-12-15T08:29:14.449Z,24.5
2018-12-15T08:30:05.340Z,25.6
2018-12-15T08:30:54.320Z,26.5
2018-12-15T08:31:44.665Z,27.4
2018-12-15T08:32:35.034Z,28.2
2018-12-15T08:33:25.113Z,28.8
2018-12-15T08:34:15.189Z,29.3
2018-12-15T08:35:05.382Z,29.8
2018-12-15T08:35:55.461Z,30.2
2018-12-15T08:36:44.969Z,30.5
2018-12-15T08:37:35.587Z,30.8
2018-12-15T08:38:25.386Z,31.2
2018-12-15T08:39:15.710Z,31.4
2018-12-15T08:40:05.471Z,31.7
2018-12-15T08:40:54.461Z,31.9
2018-12-15T08:41:45.596Z,32.1
2018-12-15T08:42:35.346Z,32.4
2018-12-15T08:43:26.016Z,32.4
2018-12-15T08:44:15.853Z,32.6
2018-12-15T08:45:06.443Z,32.9
2018-12-15T08:45:56.961Z,33
2018-12-15T08:46:45.968Z,33.2
2018-12-15T08:47:36.003Z,33.3
2018-12-15T08:48:25.566Z,32.9
2018-12-15T08:49:16.180Z,30.4
2018-12-15T08:50:06.203Z,28.3
2018-12-15T08:50:56.248Z,27.1
2018-12-15T08:51:48.323Z,26.3
2018-12-15T08:52:36.420Z,25.8
2018-12-15T08:53:26.410Z,25.4
2018-12-15T08:54:15.387Z,25.1
2018-12-15T08:55:07.302Z,25
2018-12-15T08:55:56.288Z,24.9
2018-12-15T08:56:47.290Z,24.8
2018-12-15T08:57:37.025Z,24.9
2018-12-15T08:58:26.445Z,25.4
2018-12-15T08:59:16.250Z,25.6
2018-12-15T09:00:07.151Z,25.8
2018-12-15T09:16:44.561Z,26.4
2018-12-15T09:17:35.488Z,27.6
2018-12-15T09:18:25.223Z,28.4
2018-12-15T09:19:19.521Z,28.9
2018-12-15T09:20:04.990Z,29.4
2018-12-15T09:20:54.786Z,29.8
2018-12-15T09:21:45.945Z,30.1
2018-12-15T09:22:35.184Z,30.4
2018-12-15T09:23:25.348Z,30.8
2018-12-15T09:24:14.273Z,31.1
2018-12-15T09:25:05.410Z,31.3
2018-12-15T09:25:55.427Z,31.6
2018-12-15T09:26:46.264Z,31.8
2018-12-15T09:27:34.687Z,32.1
2018-12-15T09:28:26.077Z,32.3
2018-12-15T09:29:15.355Z,32.4
2018-12-15T09:30:05.907Z,32.6
2018-12-15T09:30:55.218Z,32.8
2018-12-15T09:31:46.077Z,32.8
2018-12-15T09:32:35.863Z,33.1
2018-12-15T09:33:26.172Z,33.2
2018-12-15T09:34:16.237Z,33.3
2018-12-15T09:35:04.701Z,32.9
2018-12-15T09:35:55.607Z,30.4
2018-12-15T09:36:45.667Z,28.1
2018-12-15T09:37:35.752Z,26.9
2018-12-15T09:38:26.299Z,26.1
2018-12-15T09:39:16.257Z,25.6
2018-12-15T09:40:06.167Z,25.3
2018-12-15T09:40:56.149Z,25
2018-12-15T09:41:45.666Z,24.8
2018-12-15T09:42:36.272Z,24.7
2018-12-15T09:43:27.409Z,24.7
2018-12-15T09:44:16.956Z,24.6
2018-12-15T09:45:06.135Z,25.2
2018-12-15T09:45:57.049Z,25.4
2018-12-15T09:46:46.818Z,25.6
2018-12-15T09:47:36.682Z,25.6
2018-12-15T09:48:27.206Z,25.7
2018-12-15T09:49:23.896Z,25.7
2018-12-15T09:50:06.891Z,25.6
2018-12-15T09:50:57.681Z,25.6
2018-12-15T09:51:46.993Z,25.6
2018-12-15T09:52:38.036Z,25.6
2018-12-15T09:53:27.865Z,25.6
2018-12-15T09:54:17.454Z,25.5
2018-12-15T09:55:06.637Z,25.4
2018-12-15T09:55:57.033Z,25.3
2018-12-15T09:56:46.287Z,25.1
2018-12-15T09:57:36.823Z,25
2018-12-15T09:58:27.445Z,24.9
2018-12-15T09:59:17.133Z,24.9
2018-12-15T10:00:07.800Z,24.8
2018-12-15T10:00:58.023Z,24.8
2018-12-15T10:01:47.088Z,24.6
2018-12-15T10:02:37.183Z,25.3
2018-12-15T10:03:27.521Z,26.4
2018-12-15T10:04:17.810Z,27.3
2018-12-15T10:05:07.929Z,28.1
2018-12-15T10:05:57.200Z,28.8
2018-12-15T10:06:47.805Z,29.2
2018-12-15T10:07:38.082Z,29.7
2018-12-15T10:08:28.322Z,30.1
2018-12-15T10:09:18.183Z,30.4
2018-12-15T10:10:08.445Z,30.7
2018-12-15T10:10:58.341Z,31
2018-12-15T10:11:48.082Z,31.3
2018-12-15T10:12:38.415Z,31.6
2018-12-15T10:13:28.379Z,31.8
2018-12-15T10:14:18.799Z,32
2018-12-15T10:15:08.815Z,32.2
2018-12-15T10:15:58.719Z,32.4
2018-12-15T10:16:49.156Z,32.6
2018-12-15T10:17:38.567Z,32.7
2018-12-15T10:18:28.734Z,32.9
2018-12-15T10:19:25.718Z,33.1
2018-12-15T10:20:09.323Z,33.2
2018-12-15T10:20:58.460Z,33.3
2018-12-15T10:21:49.543Z,33.4
2018-12-15T10:22:38.356Z,31.3
2018-12-15T10:23:29.912Z,28.8
2018-12-15T10:24:19.448Z,27.1
2018-12-15T10:25:09.507Z,26.3
2018-12-15T10:25:59.823Z,25.6
2018-12-15T10:26:48.789Z,25.2
2018-12-15T10:27:40.093Z,24.9
2018-12-15T10:28:29.211Z,24.8
2018-12-15T10:29:19.291Z,24.6
2018-12-15T10:30:09.921Z,24.6
2018-12-15T10:31:00.159Z,24.5
2018-12-15T10:31:49.118Z,25.3
2018-12-15T10:32:39.966Z,25.4
2018-12-15T10:33:29.818Z,25.5
2018-12-15T10:34:18.871Z,25.6
2018-12-15T10:35:10.179Z,25.6
2018-12-15T10:36:00.256Z,25.6
2018-12-15T10:36:50.280Z,25.6
2018-12-15T10:37:40.593Z,25.6
2018-12-15T10:38:29.838Z,25.6
2018-12-15T10:39:20.165Z,25.6
2018-12-15T10:40:10.252Z,25.5
2018-12-15T10:41:00.565Z,25.5
2018-12-15T10:41:50.938Z,25.4
2018-12-15T10:42:40.173Z,25.2
2018-12-15T10:43:30.182Z,25.1
2018-12-15T10:44:21.330Z,25
2018-12-15T10:45:11.394Z,24.9
2018-12-15T10:46:01.215Z,24.9
2018-12-15T10:46:50.689Z,24.8
2018-12-15T10:47:41.630Z,24.8
2018-12-15T10:48:30.263Z,24.6
2018-12-15T10:49:20.930Z,25.6
2018-12-15T10:50:10.394Z,26.7
2018-12-15T10:51:01.014Z,27.6
2018-12-15T10:51:51.028Z,28.4
2018-12-15T10:52:41.652Z,28.9
2018-12-15T10:53:31.409Z,29.4
2018-12-15T10:54:21.501Z,29.8
2018-12-15T10:55:10.703Z,30.1
2018-12-15T10:56:02.369Z,30.5
2018-12-15T10:56:51.367Z,30.8
2018-12-15T10:57:41.409Z,31.1
2018-12-15T10:58:31.754Z,31.4
2018-12-15T10:59:21.563Z,31.7
2018-12-15T11:00:11.597Z,31.9
2018-12-15T11:01:02.604Z,32.1
2018-12-15T11:01:52.191Z,32.3
2018-12-15T11:02:41.792Z,32.5
2018-12-15T11:03:32.131Z,32.6
2018-12-15T11:04:22.446Z,32.8
2018-12-15T11:05:11.689Z,32.9
2018-12-15T11:06:02.261Z,33.1
2018-12-15T11:06:52.081Z,33.3
2018-12-15T11:07:43.276Z,33.4
2018-12-15T11:08:32.090Z,32.3
2018-12-15T11:09:22.797Z,29.5
2018-12-15T11:10:12.546Z,27.6
2018-12-15T11:11:02.398Z,26.4
2018-12-15T11:11:52.099Z,25.8
2018-12-15T11:12:42.468Z,25.3
2018-12-15T11:13:33.025Z,24.9
2018-12-15T14:15:31.430Z,32
2018-12-15T14:16:20.642Z,32.3
2018-12-15T14:17:11.360Z,32.4
2018-12-15T14:18:01.415Z,32.6
2018-12-15T14:18:52.105Z,32.8
2018-12-15T14:19:41.282Z,32.9
2018-12-15T14:20:31.830Z,33
2018-12-15T14:21:21.839Z,33.2
2018-12-15T14:22:11.662Z,33.3
2018-12-15T14:23:02.064Z,31.6
2018-12-15T14:23:51.830Z,28.8
2018-12-15T14:24:41.282Z,27.2
2018-12-15T14:25:31.902Z,26.3
2018-12-15T14:26:22.209Z,25.6
2018-12-15T14:27:11.429Z,25.3
2018-12-15T14:28:01.238Z,24.9
2018-12-15T14:28:51.825Z,24.8
2018-12-15T14:29:41.903Z,24.7
2018-12-15T14:30:32.288Z,24.6
2018-12-15T14:31:21.734Z,24.6
2018-12-15T14:32:12.386Z,24.5
2018-12-15T14:33:01.915Z,25.1
2018-12-15T14:33:51.949Z,25.4
2018-12-15T14:34:41.796Z,25.5
2018-12-15T14:35:32.305Z,25.6
2018-12-15T14:36:22.134Z,25.6
2018-12-15T14:37:12.728Z,25.6
2018-12-15T14:38:02.759Z,25.6
2018-12-15T14:38:53.783Z,25.6
2018-12-15T14:39:44.044Z,25.6
2018-12-15T14:40:32.822Z,25.5
2018-12-15T14:41:22.933Z,25.5
2018-12-15T14:42:13.518Z,25.4
2018-12-15T14:43:03.289Z,25.6
2018-12-15T14:43:54.148Z,26.7
2018-12-15T14:44:43.406Z,27.7
2018-12-15T14:45:33.796Z,28.5
2018-12-15T14:46:24.095Z,29.2
2018-12-15T14:47:13.563Z,29.6
2018-12-15T14:48:03.111Z,29.9
2018-12-15T14:48:53.138Z,30.3
2018-12-15T14:49:43.174Z,30.6
2018-12-15T14:50:34.076Z,30.9
2018-12-15T14:51:24.647Z,31.1
2018-12-15T14:52:13.885Z,31.4
2018-12-15T14:53:03.763Z,31.6
2018-12-15T14:53:53.473Z,31.8
2018-12-15T14:54:44.450Z,32
2018-12-15T14:55:34.144Z,32.2
2018-12-15T14:56:24.165Z,31.2
2018-12-15T14:57:14.585Z,30
2018-12-15T14:58:04.390Z,28.4
2018-12-15T14:58:54.895Z,27.6
2018-12-15T14:59:44.410Z,26.8
2018-12-15T15:00:34.751Z,26
2018-12-15T15:01:24.592Z,25.1